Awendaw, SC (29429)

9:05 AM EDT on July 24, 2016 (GMT -0400)
Wellesley Place - Park West | | Change Station

Elev 34 ft 32.89 °N, 79.79 °W | Updated 25 seconds ago

Partly Cloudy
Partly Cloudy
83.1 °F
Feels Like 93 °F
N
2.0
Wind Variable Wind from WNW
Gusts 4.9 mph

Today
High -- | Low -- °F
--% Chance of Precip.
Yesterday
High -- | Low -- °F
Precip. -- in
Pressure 30.04 in
Visibility 10.0 miles
Clouds Few 4000 ft
Few 25000 ft
Heat Index 93 °F
Dew Point 78 °F
Humidity 83%
Rainfall 0.00 in
Snow Depth Not available.
6:27 AM 8:22 PM
Waning Gibbous, 76% visible
METAR KCHS 241256Z 26008KT 10SM FEW040 FEW250 29/23 A3004 RMK AO2 SLP173 TCU DSNT S-SW T02940233 $
Pressure 30.04 in
Visibility 10.0 miles
Clouds Few 4000 ft
Few 25000 ft
Heat Index 93 °F
Dew Point 78 °F
Humidity 83%
Rainfall 0.00 in
Snow Depth Not available.
6:27 AM 8:22 PM
Waning Gibbous, 76% visible
METAR KCHS 241256Z 26008KT 10SM FEW040 FEW250 29/23 A3004 RMK AO2 SLP173 TCU DSNT S-SW T02940233 $

10-Day Weather Forecast

Almanac

Astronomy

Jul. 24, 2016 Rise Set
Actual Time
Civil Twilight
Nautical Twilight
Astronomical Twilight
Moon
Length of Visible Light
Length of Day
Tomorrow will be .
, % of the Moon is Illuminated

Today's Extremes

State Highs State Lows

Community

WunderPhotos

Upload Photos

1,927,054 photos uploaded!

WunderBlog® & News

Nearby

Air Quality

  Air Quality AQ Index Pollutant
Not available.

Snow Depth

Station Depth Elevation

Earthquake Activity

City Distance Mag. Time & Date
Minimum magnitude displayed is 2.5.

Coastal Water Temperatures

Place Temperature

Stations

Nearby Weather Stations

Station Location Temp. Windchill Dew Point Humidity Wind Precip. Elev Updated Type
                   

Watches & Warnings

There are currently no watches in effect.